createdAt,value
2019-05-01T00:00:16.194Z,21.03
2019-05-01T00:02:58.007Z,23.50
2019-05-01T00:05:29.924Z,21.03
2019-05-01T00:07:57.580Z,23.07
2019-05-01T00:10:25.918Z,22.00
2019-05-01T00:12:53.581Z,20.97
2019-05-01T00:15:23.672Z,20.80
2019-05-01T00:17:51.364Z,26.20
2019-05-01T00:20:19.030Z,24.93
2019-05-01T00:22:46.680Z,23.40
2019-05-01T00:25:14.363Z,24.57
2019-05-01T00:27:42.027Z,21.57
2019-05-01T00:30:12.105Z,26.60
2019-05-01T00:32:39.780Z,24.27
2019-05-01T00:35:07.512Z,28.27
2019-05-01T00:37:35.248Z,26.40
2019-05-01T00:40:02.904Z,30.50
2019-05-01T00:42:31.375Z,31.50
2019-05-01T00:44:59.032Z,28.07
2019-05-01T00:47:26.703Z,29.40
2019-05-01T00:49:54.357Z,30.40
2019-05-01T00:52:22.019Z,34.23
2019-05-01T00:54:51.433Z,31.83
2019-05-01T00:57:24.498Z,29.63
2019-05-01T00:59:59.778Z,30.60
2019-05-01T01:02:34.119Z,30.40
2019-05-01T01:05:01.851Z,29.90
2019-05-01T01:07:29.491Z,29.70
2019-05-01T01:09:57.160Z,33.70
2019-05-01T01:12:24.916Z,31.13
2019-05-01T01:14:52.644Z,35.70
2019-05-01T01:17:20.373Z,33.07
2019-05-01T01:19:48.025Z,32.17
2019-05-01T01:22:15.673Z,28.53
2019-05-01T01:24:43.323Z,29.77
2019-05-01T01:27:12.048Z,31.93
2019-05-01T01:29:39.933Z,31.43
2019-05-01T01:32:07.803Z,36.03
2019-05-01T01:34:35.459Z,35.13
2019-05-01T01:37:03.122Z,33.60
2019-05-01T01:39:30.854Z,32.17
2019-05-01T01:41:58.598Z,35.67
2019-05-01T01:44:37.714Z,33.13
2019-05-01T01:47:05.362Z,33.73
2019-05-01T01:49:33.019Z,30.77
2019-05-01T01:52:00.899Z,28.13
2019-05-01T01:54:28.683Z,27.93
2019-05-01T01:56:56.327Z,27.67
2019-05-01T01:59:24.067Z,27.00
2019-05-01T02:02:00.432Z,30.97
2019-05-01T02:04:50.036Z,27.27
2019-05-01T02:07:17.692Z,24.03
2019-05-01T02:09:45.469Z,25.63
2019-05-01T02:12:13.268Z,26.37
2019-05-01T02:14:41.222Z,27.63
2019-05-01T02:17:08.936Z,25.23
2019-05-01T02:19:36.612Z,23.93
2019-05-01T02:22:04.258Z,27.63
2019-05-01T02:24:31.910Z,25.57
2019-05-01T02:27:01.492Z,28.07
2019-05-01T02:29:35.383Z,26.23
2019-05-01T02:32:03.119Z,25.77
2019-05-01T02:34:30.768Z,26.30
2019-05-01T02:36:58.415Z,20.33
2019-05-01T02:39:26.064Z,25.80
2019-05-01T02:41:53.707Z,27.33
2019-05-01T02:44:21.361Z,25.07
2019-05-01T02:46:49.039Z,24.03
2019-05-01T02:49:16.694Z,27.83
2019-05-01T02:51:44.353Z,26.17
2019-05-01T02:54:11.995Z,23.57
2019-05-01T02:56:49.396Z,24.57
2019-05-01T02:59:17.122Z,26.67
2019-05-01T03:01:47.676Z,22.27
2019-05-01T03:04:14.132Z,24.97
2019-05-01T03:06:41.969Z,25.83
2019-05-01T03:09:09.625Z,25.93
2019-05-01T03:11:37.305Z,22.10
2019-05-01T03:14:04.959Z,24.40
2019-05-01T03:16:32.651Z,25.90
2019-05-01T03:19:02.162Z,22.70
2019-05-01T03:21:36.414Z,24.53
2019-05-01T03:24:07.425Z,24.73
2019-05-01T03:26:35.160Z,21.57
2019-05-01T03:29:02.810Z,20.77
2019-05-01T03:31:30.470Z,21.90
2019-05-01T03:33:58.184Z,26.03
2019-05-01T03:36:25.841Z,26.20
2019-05-01T03:38:53.612Z,21.03
2019-05-01T03:41:21.354Z,20.27
2019-05-01T03:43:49.097Z,23.47
2019-05-01T03:46:16.749Z,20.50
2019-05-01T03:48:44.403Z,22.00
2019-05-01T03:51:12.126Z,20.20
2019-05-01T03:53:39.794Z,24.63
2019-05-01T03:56:07.724Z,20.97
2019-05-01T03:58:35.385Z,23.80
2019-05-01T04:01:08.339Z,25.43
2019-05-01T04:03:41.502Z,23.37
2019-05-01T04:06:09.148Z,25.40
2019-05-01T04:08:36.795Z,20.30
2019-05-01T04:11:04.749Z,22.13
2019-05-01T04:13:32.520Z,19.87
2019-05-01T04:16:00.197Z,22.83
2019-05-01T04:18:28.343Z,23.50
2019-05-01T04:20:56.081Z,22.93
2019-05-01T04:23:23.731Z,22.07
2019-05-01T04:25:51.389Z,22.07
2019-05-01T04:28:30.036Z,22.67
2019-05-01T04:31:05.033Z,26.33
2019-05-01T04:33:33.810Z,20.90
2019-05-01T04:36:06.581Z,18.57
2019-05-01T04:38:34.234Z,19.67
2019-05-01T04:41:01.935Z,23.07
2019-05-01T04:43:29.809Z,21.27
2019-05-01T04:45:57.647Z,22.13
2019-05-01T04:48:25.304Z,23.77
2019-05-01T04:50:52.957Z,19.03
2019-05-01T04:53:20.604Z,22.90
2019-05-01T04:55:48.348Z,25.27
2019-05-01T04:58:16.102Z,24.20
2019-05-01T05:00:43.815Z,26.40
2019-05-01T05:03:16.317Z,21.83
2019-05-01T05:05:44.187Z,23.70
2019-05-01T05:08:11.839Z,28.27
2019-05-01T05:10:39.559Z,25.73
2019-05-01T05:13:15.549Z,25.67
2019-05-01T05:15:54.503Z,22.93
2019-05-01T05:18:22.230Z,26.33
2019-05-01T05:20:49.880Z,26.10
2019-05-01T05:23:17.561Z,28.37
2019-05-01T05:25:45.223Z,27.63
2019-05-01T05:28:12.885Z,27.33
2019-05-01T05:30:40.621Z,28.73
2019-05-01T05:33:18.244Z,25.97
2019-05-01T05:35:37.760Z,30.47
2019-05-01T05:38:11.115Z,29.83
2019-05-01T05:40:38.749Z,25.77
2019-05-01T05:43:06.407Z,27.97
2019-05-01T05:45:34.043Z,29.90
2019-05-01T05:48:01.945Z,30.97
2019-05-01T05:50:32.077Z,29.97
2019-05-01T05:53:03.159Z,31.97
2019-05-01T05:55:35.686Z,29.40
2019-05-01T05:58:12.524Z,32.60
2019-05-01T06:01:05.155Z,34.83
2019-05-01T06:03:38.232Z,38.97
2019-05-01T06:06:11.861Z,36.00
2019-05-01T06:08:39.571Z,37.73
2019-05-01T06:11:15.748Z,43.77
2019-05-01T06:13:48.648Z,39.97
2019-05-01T06:16:29.066Z,58.97
2019-05-01T06:19:04.892Z,55.73
2019-05-01T06:21:40.002Z,59.90
2019-05-01T06:24:15.080Z,66.40
2019-05-01T06:26:42.793Z,65.33
2019-05-01T06:29:10.467Z,74.10
2019-05-01T06:31:38.138Z,84.80
2019-05-01T06:34:05.799Z,80.40
2019-05-01T06:36:33.534Z,79.47
2019-05-01T06:39:01.227Z,78.37
2019-05-01T06:41:33.743Z,76.07
2019-05-01T06:44:08.512Z,73.90
2019-05-01T06:46:45.625Z,76.30
2019-05-01T06:49:28.931Z,80.70
2019-05-01T06:51:55.470Z,71.23
2019-05-01T06:54:23.131Z,75.23
2019-05-01T06:56:50.848Z,71.90
2019-05-01T06:59:18.527Z,69.53
2019-05-01T07:01:46.177Z,67.13
2019-05-01T07:04:14.212Z,62.53
2019-05-01T07:06:42.131Z,67.00
2019-05-01T07:09:11.970Z,69.27
2019-05-01T07:14:05.176Z,56.47
2019-05-01T07:16:37.475Z,60.17
2019-05-01T07:19:06.175Z,58.33
2019-05-01T07:21:32.868Z,60.30
2019-05-01T07:24:00.870Z,58.30
2019-05-01T07:26:28.524Z,59.63
2019-05-01T07:28:58.791Z,53.03
2019-05-01T07:31:31.015Z,55.87
2019-05-01T07:33:55.895Z,54.03
2019-05-01T07:36:23.543Z,57.10
2019-05-01T07:38:51.199Z,53.23
2019-05-01T07:41:18.855Z,49.03
2019-05-01T07:43:59.780Z,48.43
2019-05-01T07:46:32.719Z,48.07
2019-05-01T07:49:00.380Z,49.30
2019-05-01T07:51:28.030Z,47.47
2019-05-01T07:53:59.014Z,44.73
2019-05-01T07:56:28.252Z,41.57
2019-05-01T07:58:54.804Z,44.80
2019-05-01T08:01:43.561Z,45.77
2019-05-01T08:04:13.828Z,44.30
2019-05-01T08:06:40.591Z,51.53
2019-05-01T08:09:11.192Z,41.10
2019-05-01T08:11:39.264Z,44.53
2019-05-01T08:14:07.793Z,42.37
2019-05-01T08:16:37.847Z,46.17
2019-05-01T08:19:13.076Z,41.83
2019-05-01T08:21:46.326Z,43.80
2019-05-01T08:24:17.960Z,44.27
2019-05-01T08:26:44.148Z,43.43
2019-05-01T08:29:17.376Z,43.97
2019-05-01T08:31:58.893Z,44.07
2019-05-01T08:34:26.529Z,42.23
2019-05-01T08:36:54.400Z,41.07
2019-05-01T08:39:22.045Z,40.37
2019-05-01T08:41:49.703Z,41.60
2019-05-01T08:44:18.363Z,39.77
2019-05-01T08:46:53.603Z,39.07
2019-05-01T08:49:24.528Z,41.23
2019-05-01T08:51:52.184Z,42.10
2019-05-01T08:54:19.839Z,37.00
2019-05-01T08:56:47.611Z,41.90
2019-05-01T08:59:15.266Z,35.37
2019-05-01T09:01:45.779Z,34.70
2019-05-01T09:04:18.816Z,32.83
2019-05-01T09:06:46.621Z,36.13
2019-05-01T09:09:14.276Z,31.40
2019-05-01T09:11:41.980Z,32.47
2019-05-01T09:14:09.740Z,30.97
2019-05-01T09:16:37.398Z,28.43
2019-05-01T09:19:05.046Z,35.07
2019-05-01T09:21:33.344Z,32.63
2019-05-01T09:24:02.071Z,34.90
2019-05-01T09:26:45.309Z,33.27
2019-05-01T09:29:16.097Z,30.87
2019-05-01T09:31:44.093Z,28.63
2019-05-01T09:34:14.001Z,27.00
2019-05-01T09:36:41.132Z,27.43
2019-05-01T09:39:10.763Z,31.40
2019-05-01T09:41:38.900Z,24.87
2019-05-01T09:44:10.817Z,27.87
2019-05-01T09:46:37.148Z,27.00
2019-05-01T09:49:05.024Z,35.63
2019-05-01T09:51:47.618Z,35.03
2019-05-01T09:54:18.349Z,29.93
2019-05-01T09:56:46.103Z,34.43
2019-05-01T09:59:17.302Z,30.53
2019-05-01T10:01:43.119Z,34.10
2019-05-01T10:04:10.786Z,35.03
2019-05-01T10:06:38.445Z,33.77
2019-05-01T10:09:06.303Z,37.23
2019-05-01T10:11:36.039Z,33.80
2019-05-01T10:14:04.180Z,31.33
2019-05-01T10:16:31.981Z,31.57
2019-05-01T10:18:59.696Z,32.97
2019-05-01T10:21:28.920Z,31.77
2019-05-01T10:23:56.694Z,31.00
2019-05-01T10:26:26.004Z,30.03
2019-05-01T10:29:06.163Z,24.47
2019-05-01T10:31:53.825Z,26.73
2019-05-01T10:34:29.896Z,28.93
2019-05-01T10:36:57.636Z,28.70
2019-05-01T10:39:25.407Z,27.03
2019-05-01T10:41:53.177Z,27.30
2019-05-01T10:44:20.904Z,28.20
2019-05-01T10:46:48.564Z,28.10
2019-05-01T10:49:16.219Z,28.90
2019-05-01T10:51:43.876Z,28.83
2019-05-01T10:54:11.535Z,28.63
2019-05-01T10:56:39.246Z,29.97
2019-05-01T10:59:07.008Z,28.37
2019-05-01T11:01:42.143Z,29.93
2019-05-01T11:04:09.800Z,30.53
2019-05-01T11:06:37.455Z,29.03
2019-05-01T11:09:05.178Z,31.43
2019-05-01T11:11:32.836Z,27.50
2019-05-01T11:14:00.957Z,27.43
2019-05-01T11:16:29.071Z,27.63
2019-05-01T11:18:56.727Z,28.07
2019-05-01T11:21:24.387Z,26.50
2019-05-01T11:23:52.043Z,24.07
2019-05-01T11:26:19.719Z,27.20
2019-05-01T11:28:47.379Z,25.50
2019-05-01T11:31:17.396Z,24.93
2019-05-01T11:33:50.249Z,24.53
2019-05-01T11:36:34.912Z,24.50
2019-05-01T11:39:20.471Z,28.73
2019-05-01T11:41:53.608Z,27.63
2019-05-01T11:44:21.274Z,27.63
2019-05-01T11:46:48.913Z,25.97
2019-05-01T11:49:16.755Z,27.70
2019-05-01T11:51:44.555Z,27.63
2019-05-01T11:54:12.268Z,23.73
2019-05-01T11:56:39.927Z,23.67
2019-05-01T11:59:07.719Z,24.67
2019-05-01T12:01:35.424Z,24.23
2019-05-01T12:04:03.096Z,23.47
2019-05-01T12:06:30.748Z,25.23
2019-05-01T12:08:58.474Z,23.80
2019-05-01T12:11:28.148Z,22.53
2019-05-01T12:16:43.662Z,25.87
2019-05-01T12:19:11.597Z,22.13
2019-05-01T12:21:39.336Z,21.27
2019-05-01T12:24:06.997Z,17.27
2019-05-01T12:26:34.665Z,16.73
2019-05-01T12:29:02.414Z,14.03
2019-05-01T12:31:31.317Z,13.43
2019-05-01T12:33:59.182Z,11.57
2019-05-01T12:36:35.969Z,15.47
2019-05-01T12:38:56.363Z,14.73
2019-05-01T12:41:34.790Z,14.17
2019-05-01T12:44:02.467Z,13.90
2019-05-01T12:46:35.321Z,15.93
2019-05-01T12:49:03.249Z,16.33
2019-05-01T12:51:31.062Z,20.97
2019-05-01T12:54:07.169Z,22.17
2019-05-01T12:56:38.251Z,18.50
2019-05-01T12:59:05.907Z,20.10
2019-05-01T13:01:33.751Z,23.87
2019-05-01T13:04:01.467Z,21.20
2019-05-01T13:06:29.139Z,22.33
2019-05-01T13:08:56.837Z,23.23
2019-05-01T13:11:24.768Z,24.23
2019-05-01T13:13:52.592Z,24.20
2019-05-01T13:16:20.416Z,22.93
2019-05-01T13:18:48.070Z,23.03
2019-05-01T13:21:15.762Z,23.80
2019-05-01T13:23:43.482Z,26.60
2019-05-01T13:26:18.724Z,21.90
2019-05-01T13:28:55.404Z,22.87
2019-05-01T13:31:42.972Z,25.92
2019-05-01T13:34:11.175Z,22.10
2019-05-01T13:36:39.876Z,22.40
2019-05-01T13:39:07.523Z,23.20
2019-05-01T13:41:35.270Z,21.03
2019-05-01T13:44:02.985Z,18.70
2019-05-01T13:46:30.645Z,17.53
2019-05-01T13:51:25.129Z,16.17
2019-05-01T13:53:53.007Z,17.43
2019-05-01T13:56:20.815Z,15.27
2019-05-01T13:58:48.488Z,15.70
2019-05-01T14:03:42.092Z,18.63
2019-05-01T14:06:09.947Z,14.70
2019-05-01T14:08:37.817Z,16.03
2019-05-01T14:11:05.477Z,16.80
2019-05-01T14:15:59.082Z,17.17
2019-05-01T14:18:26.771Z,17.23
2019-05-01T14:23:31.204Z,17.20
2019-05-01T14:28:24.791Z,16.17
2019-05-01T14:33:24.491Z,15.50
2019-05-01T14:35:52.166Z,15.17
2019-05-01T14:40:45.771Z,12.67
2019-05-01T14:43:13.415Z,18.00
2019-05-01T14:48:07.008Z,13.37
2019-05-01T14:50:34.900Z,15.07
2019-05-01T14:53:02.544Z,12.37
2019-05-01T14:55:30.211Z,11.50
2019-05-01T14:57:57.859Z,10.70
2019-05-01T15:02:51.448Z,13.27
2019-05-01T15:07:45.056Z,12.63
2019-05-01T15:10:12.715Z,13.27
2019-05-01T15:15:11.690Z,12.13
2019-05-01T15:20:13.307Z,11.13
2019-05-01T15:22:40.968Z,15.03
2019-05-01T15:25:08.644Z,12.53
2019-05-01T15:27:36.319Z,12.70
2019-05-01T15:30:04.157Z,12.70
2019-05-01T15:34:57.746Z,13.80
2019-05-01T15:37:25.409Z,11.30
2019-05-01T15:39:58.797Z,10.93
2019-05-01T15:42:32.797Z,13.13
2019-05-01T15:45:01.568Z,13.23
2019-05-01T15:47:29.262Z,14.27
2019-05-01T15:52:22.994Z,14.23
2019-05-01T15:54:50.734Z,14.60
2019-05-01T15:57:18.403Z,15.30
2019-05-01T15:59:46.046Z,10.53
2019-05-01T16:02:13.802Z,12.53
2019-05-01T16:07:07.384Z,12.90
2019-05-01T16:09:35.192Z,13.60
2019-05-01T16:14:35.099Z,12.70
2019-05-01T16:17:02.977Z,12.93
2019-05-01T16:21:56.805Z,11.37
2019-05-01T16:24:24.458Z,12.90
2019-05-01T16:29:18.044Z,15.47
2019-05-01T16:31:45.683Z,11.77
2019-05-01T16:36:39.283Z,14.37
2019-05-01T16:39:24.909Z,11.83
2019-05-01T16:41:52.611Z,13.28
2019-05-01T16:44:20.272Z,12.30
2019-05-01T16:46:47.976Z,14.07
2019-05-01T16:49:15.643Z,14.87
2019-05-01T16:54:09.603Z,13.13
2019-05-01T16:56:37.259Z,13.50
2019-05-01T16:59:04.923Z,11.57
2019-05-01T17:01:41.035Z,14.80
2019-05-01T17:06:39.495Z,14.17
2019-05-01T17:11:33.615Z,15.83
2019-05-01T17:14:01.281Z,15.70
2019-05-01T17:16:28.931Z,17.67
2019-05-01T17:18:56.718Z,14.93
2019-05-01T17:21:24.592Z,14.97
2019-05-01T17:23:52.272Z,14.27
2019-05-01T17:26:20.492Z,13.83
2019-05-01T17:28:48.194Z,14.50
2019-05-01T17:31:15.846Z,15.33
2019-05-01T17:33:43.501Z,14.73
2019-05-01T17:36:11.156Z,15.77
2019-05-01T17:38:49.006Z,11.70
2019-05-01T17:41:08.187Z,13.93
2019-05-01T17:43:35.975Z,14.37
2019-05-01T17:46:05.954Z,15.60
2019-05-01T17:48:33.761Z,15.40
2019-05-01T17:51:02.393Z,14.00
2019-05-01T17:53:30.052Z,14.27
2019-05-01T17:55:57.702Z,12.90
2019-05-01T17:58:25.389Z,14.90
2019-05-01T18:01:15.099Z,15.93
2019-05-01T18:03:53.191Z,16.00
2019-05-01T18:06:27.055Z,13.60
2019-05-01T18:09:02.929Z,13.70
2019-05-01T18:11:24.268Z,17.73
2019-05-01T18:13:51.931Z,12.40
2019-05-01T18:16:19.602Z,10.87
2019-05-01T18:18:47.256Z,12.93
2019-05-01T18:21:14.999Z,17.43
2019-05-01T18:23:49.418Z,14.97
2019-05-01T18:26:23.164Z,10.80
2019-05-01T18:29:00.862Z,13.90
2019-05-01T18:31:31.830Z,14.23
2019-05-01T18:34:02.487Z,15.83
2019-05-01T18:36:33.840Z,11.83
2019-05-01T18:39:16.205Z,16.37
2019-05-01T18:41:42.860Z,12.60
2019-05-01T18:44:11.408Z,12.03
2019-05-01T18:46:39.181Z,12.43
2019-05-01T18:49:06.831Z,13.37
2019-05-01T18:51:36.147Z,15.83
2019-05-01T18:54:03.855Z,12.77
2019-05-01T18:56:31.517Z,17.43
2019-05-01T18:58:59.174Z,15.27
2019-05-01T19:01:26.881Z,13.03
2019-05-01T19:03:54.536Z,14.13
2019-05-01T19:06:22.204Z,14.90
2019-05-01T19:08:49.851Z,14.70
2019-05-01T19:11:17.584Z,15.43
2019-05-01T19:13:45.358Z,13.10
2019-05-01T19:16:13.039Z,18.60
2019-05-01T19:18:40.772Z,16.17
2019-05-01T19:21:08.807Z,19.37
2019-05-01T19:23:36.658Z,13.87
2019-05-01T19:26:06.560Z,15.60
2019-05-01T19:28:34.055Z,13.67
2019-05-01T19:31:01.716Z,15.03
2019-05-01T19:33:29.467Z,15.47
2019-05-01T19:35:57.119Z,15.63
2019-05-01T19:38:29.350Z,15.10
2019-05-01T19:40:54.532Z,11.97
2019-05-01T19:43:22.175Z,13.77
2019-05-01T19:45:49.840Z,16.77
2019-05-01T19:48:17.505Z,17.57
2019-05-01T19:50:48.419Z,13.27
2019-05-01T19:53:15.830Z,15.10
2019-05-01T19:55:44.868Z,14.07
2019-05-01T19:58:13.021Z,15.17
2019-05-01T20:00:41.060Z,15.53
2019-05-01T20:03:08.909Z,17.83
2019-05-01T20:05:36.609Z,13.50
2019-05-01T20:08:04.335Z,14.27
2019-05-01T20:10:31.994Z,16.70
2019-05-01T20:12:59.658Z,14.17
2019-05-01T20:15:27.353Z,14.97
2019-05-01T20:17:55.069Z,13.57
2019-05-01T20:20:22.729Z,16.97
2019-05-01T20:22:53.509Z,16.80
2019-05-01T20:25:21.170Z,17.10
2019-05-01T20:27:53.079Z,16.83
2019-05-01T20:30:18.517Z,18.93
2019-05-01T20:32:46.172Z,15.23
2019-05-01T20:35:13.823Z,15.47
2019-05-01T20:37:41.489Z,15.83
2019-05-01T20:40:11.251Z,15.30
2019-05-01T20:42:38.503Z,13.90
2019-05-01T20:45:13.039Z,16.60
2019-05-01T20:47:45.280Z,16.23
2019-05-01T20:50:05.822Z,15.20
2019-05-01T20:52:33.472Z,16.93
2019-05-01T20:55:01.119Z,15.40
2019-05-01T20:57:32.908Z,20.13
2019-05-01T21:00:00.564Z,12.97
2019-05-01T21:02:28.609Z,17.23
2019-05-01T21:05:01.492Z,15.53
2019-05-01T21:07:32.805Z,19.10
2019-05-01T21:10:01.928Z,16.10
2019-05-01T21:12:29.685Z,14.87
2019-05-01T21:14:57.336Z,16.67
2019-05-01T21:17:25.001Z,18.80
2019-05-01T21:19:54.482Z,15.70
2019-05-01T21:22:23.415Z,15.63
2019-05-01T21:24:53.163Z,18.63
2019-05-01T21:27:21.029Z,15.30
2019-05-01T21:29:48.688Z,15.20
2019-05-01T21:32:18.263Z,17.40
2019-05-01T21:34:45.725Z,17.40
2019-05-01T21:37:13.385Z,20.17
2019-05-01T21:39:41.040Z,17.80
2019-05-01T21:42:11.753Z,15.87
2019-05-01T21:44:38.302Z,17.27
2019-05-01T21:47:06.061Z,18.50
2019-05-01T21:49:33.729Z,17.07
2019-05-01T21:52:03.374Z,17.83
2019-05-01T21:54:30.743Z,20.70
2019-05-01T21:56:58.488Z,22.00
2019-05-01T21:59:26.380Z,17.63
2019-05-01T22:01:54.115Z,18.07
2019-05-01T22:04:21.788Z,18.30
2019-05-01T22:06:51.882Z,19.70
2019-05-01T22:09:21.294Z,19.40
2019-05-01T22:11:49.591Z,21.23
2019-05-01T22:14:26.365Z,17.43
2019-05-01T22:16:56.865Z,18.50
2019-05-01T22:19:24.584Z,20.53
2019-05-01T22:22:02.544Z,18.83
2019-05-01T22:24:39.653Z,19.90
2019-05-01T22:27:11.151Z,19.70
2019-05-01T22:29:44.510Z,20.23
2019-05-01T22:32:22.291Z,24.30
2019-05-01T22:34:54.730Z,20.23
2019-05-01T22:37:22.588Z,25.87
2019-05-01T22:39:55.621Z,21.87
2019-05-01T22:42:23.272Z,19.73
2019-05-01T22:44:51.038Z,20.90
2019-05-01T22:47:18.692Z,23.60
2019-05-01T22:49:46.356Z,19.83
2019-05-01T22:52:14.067Z,21.17
2019-05-01T22:54:44.940Z,23.87
2019-05-01T22:57:11.599Z,20.17
2019-05-01T22:59:39.254Z,24.97
2019-05-01T23:02:13.794Z,21.97
2019-05-01T23:04:41.455Z,25.37
2019-05-01T23:07:11.769Z,24.43
2019-05-01T23:09:38.743Z,21.27
2019-05-01T23:12:06.400Z,24.87
2019-05-01T23:14:34.220Z,25.03
2019-05-01T23:17:12.584Z,20.77
2019-05-01T23:19:40.313Z,23.77
2019-05-01T23:22:07.970Z,23.30
2019-05-01T23:24:35.626Z,23.23
2019-05-01T23:27:03.295Z,23.97
2019-05-01T23:29:31.016Z,24.33
2019-05-01T23:31:58.755Z,24.53
2019-05-01T23:34:27.899Z,21.97
2019-05-01T23:36:55.735Z,24.03
2019-05-01T23:39:23.630Z,24.07
2019-05-01T23:41:51.331Z,25.30
2019-05-01T23:44:19.115Z,25.80
2019-05-01T23:46:46.884Z,26.23
2019-05-01T23:49:14.808Z,21.70
2019-05-01T23:51:42.455Z,26.40
2019-05-01T23:54:10.145Z,25.80
2019-05-01T23:56:37.791Z,23.73
2019-05-01T23:59:05.465Z,25.10
